Time;durP1;ratioP1;P1;durP2;ratioP2;P2;SDS_P1;SDS_P2;PMS_P1;PMS_P2;Temp;Humidity;BMP_temperature;BMP_pressure;BME280_temperature;BME280_humidity;BME280_pressure;Samples;Min_cycle;Max_cycle;Signal;HPM_P1;HPM_P2
2023/03/22 00:00:42;;;;;;;8.13;2.47;;;10.80;99.90;;;;;;4956867;28;20038;-82
2023/03/22 00:03:09;;;;;;;10.73;2.73;;;10.80;99.90;;;;;;4957482;28;20027;-82
2023/03/22 00:05:35;;;;;;;5.73;1.97;;;10.70;99.90;;;;;;4957642;28;20158;-81
2023/03/22 00:08:04;;;;;;;10.53;2.70;;;10.80;99.90;;;;;;4957189;28;20090;-81
2023/03/22 00:10:30;;;;;;;10.60;2.87;;;10.70;99.90;;;;;;4956924;28;20074;-82
2023/03/22 00:12:56;;;;;;;8.03;2.17;;;10.70;99.90;;;;;;4957180;28;20035;-82
2023/03/22 00:15:22;;;;;;;7.53;1.73;;;10.70;99.90;;;;;;4973707;28;20376;-82
2023/03/22 00:17:51;;;;;;;8.93;2.67;;;10.70;99.90;;;;;;4974609;28;20030;-83
2023/03/22 00:20:18;;;;;;;9.32;2.10;;;10.70;99.90;;;;;;4956752;28;20072;-83
2023/03/22 00:22:45;;;;;;;7.97;2.27;;;10.70;99.90;;;;;;4974177;28;20117;-83
2023/03/22 00:25:11;;;;;;;6.03;1.83;;;10.70;99.90;;;;;;4973033;28;20027;-81
2023/03/22 00:27:37;;;;;;;7.90;2.23;;;10.60;99.90;;;;;;4974396;28;20030;-82
2023/03/22 00:30:04;;;;;;;8.53;2.23;;;10.60;99.90;;;;;;4956987;28;20395;-82
2023/03/22 00:32:34;;;;;;;10.07;2.03;;;10.60;99.90;;;;;;4956648;28;20014;-81
2023/03/22 00:35:00;;;;;;;7.53;1.80;;;10.50;99.90;;;;;;4957087;28;20070;-81
2023/03/22 00:37:32;;;;;;;8.03;2.03;;;10.50;99.90;;;;;;4973189;28;20086;-82
2023/03/22 00:40:02;;;;;;;10.40;2.20;;;10.50;99.90;;;;;;4974519;28;20033;-82
2023/03/22 00:42:28;;;;;;;8.63;2.63;;;10.50;99.90;;;;;;4956928;28;20424;-81
2023/03/22 00:44:53;;;;;;;9.93;2.67;;;10.40;99.90;;;;;;4956671;28;20061;-81
2023/03/22 00:47:19;;;;;;;10.97;2.23;;;10.40;99.90;;;;;;4957224;28;20046;-81
2023/03/22 00:49:45;;;;;;;6.57;2.27;;;10.40;99.90;;;;;;4973893;28;20038;-81
2023/03/22 00:52:11;;;;;;;8.97;2.40;;;10.40;99.90;;;;;;4956596;28;20489;-81
2023/03/22 00:54:36;;;;;;;7.73;2.33;;;10.40;99.90;;;;;;4957058;28;20535;-81
2023/03/22 00:57:02;;;;;;;14.23;2.93;;;10.40;99.90;;;;;;4972847;28;20035;-81
2023/03/22 00:59:28;;;;;;;9.27;2.63;;;10.40;99.90;;;;;;4956926;28;20039;-81
2023/03/22 01:01:55;;;;;;;8.87;2.60;;;10.40;99.90;;;;;;4956411;28;20030;-81
2023/03/22 01:04:24;;;;;;;6.63;2.90;;;10.40;99.90;;;;;;4956974;28;20030;-80
2023/03/22 01:06:51;;;;;;;6.93;2.53;;;10.40;99.90;;;;;;4974361;28;20027;-81
2023/03/22 01:09:16;;;;;;;7.90;2.67;;;10.30;99.90;;;;;;4957612;28;20030;-82
2023/03/22 01:11:42;;;;;;;8.83;2.97;;;10.30;99.90;;;;;;4958082;28;20039;-82
2023/03/22 01:14:08;;;;;;;10.63;2.60;;;10.30;99.90;;;;;;4957761;28;20031;-83
2023/03/22 01:16:37;;;;;;;7.93;3.60;;;10.30;99.90;;;;;;4978843;28;20034;-82
2023/03/22 01:19:03;;;;;;;9.40;3.17;;;10.20;99.90;;;;;;4978748;28;20041;-82
2023/03/22 01:21:29;;;;;;;6.20;2.53;;;10.20;99.90;;;;;;4978329;28;20062;-83
2023/03/22 01:23:54;;;;;;;9.37;2.87;;;10.20;99.90;;;;;;4959297;28;20538;-82
2023/03/22 01:26:20;;;;;;;11.43;3.40;;;10.20;99.90;;;;;;4941533;28;20050;-82
2023/03/22 01:28:45;;;;;;;9.40;3.17;;;10.20;99.90;;;;;;4957057;28;20030;-84
2023/03/22 01:31:11;;;;;;;12.73;2.90;;;10.20;99.90;;;;;;4974030;28;20038;-84
2023/03/22 01:33:37;;;;;;;12.60;3.33;;;10.20;99.90;;;;;;4960143;28;20109;-82
2023/03/22 01:36:02;;;;;;;8.53;3.10;;;10.10;99.90;;;;;;4960446;28;20035;-82
2023/03/22 01:38:28;;;;;;;10.60;2.83;;;10.10;99.90;;;;;;4977140;28;20097;-82
2023/03/22 01:40:54;;;;;;;5.70;2.43;;;10.10;99.90;;;;;;4960176;28;20035;-82
2023/03/22 01:43:20;;;;;;;10.23;3.83;;;10.10;99.90;;;;;;4976504;28;20023;-82
2023/03/22 01:45:50;;;;;;;13.10;3.90;;;10.10;99.90;;;;;;4977470;28;20109;-82
2023/03/22 01:48:44;;;;;;;13.17;3.87;;;10.10;99.90;;;;;;4959659;28;20027;-82
2023/03/22 01:51:21;;;;;;;8.75;2.50;;;10.10;99.90;;;;;;4977064;28;20066;-82
2023/03/22 01:54:09;;;;;;;10.03;3.53;;;10.10;99.90;;;;;;4975800;28;20034;-81
2023/03/22 01:56:37;;;;;;;11.20;3.60;;;10.20;99.90;;;;;;4975988;28;20030;-81
2023/03/22 01:59:05;;;;;;;10.17;4.03;;;10.20;99.90;;;;;;4959510;28;20031;-82
2023/03/22 02:01:32;;;;;;;13.17;4.43;;;10.20;99.90;;;;;;4959451;28;20082;-82
2023/03/22 02:04:14;;;;;;;8.77;4.17;;;10.20;99.90;;;;;;4959545;28;20399;-81
2023/03/22 02:06:40;;;;;;;12.03;4.77;;;10.30;99.90;;;;;;4977194;28;20352;-81
2023/03/22 02:09:09;;;;;;;15.10;4.90;;;10.30;99.90;;;;;;4975219;28;20479;-81
2023/03/22 02:11:53;;;;;;;15.97;4.70;;;10.30;99.90;;;;;;4959491;28;20115;-82
2023/03/22 02:14:40;;;;;;;9.45;4.22;;;10.40;99.90;;;;;;4959795;28;20070;-81
2023/03/22 02:17:25;;;;;;;12.77;5.00;;;10.40;99.90;;;;;;4959266;28;20526;-81
2023/03/22 02:20:08;;;;;;;;;;;10.50;99.90;;;;;;4959770;28;20394;-81
2023/03/22 02:23:02;;;;;;;13.37;6.27;;;10.50;99.90;;;;;;4976847;28;19913;-82
2023/03/22 02:25:47;;;;;;;15.60;6.30;;;10.50;99.90;;;;;;4976905;28;20019;-82
2023/03/22 02:28:16;;;;;;;18.87;7.07;;;10.50;99.90;;;;;;4976681;28;20057;-82
2023/03/22 02:31:00;;;;;;;13.73;7.50;;;10.60;99.90;;;;;;4958594;28;20042;-82
2023/03/22 02:33:44;;;;;;;16.67;7.80;;;10.60;99.90;;;;;;4976375;28;20019;-82
2023/03/22 02:36:46;;;;;;;16.70;8.07;;;10.70;99.90;;;;;;4975354;28;20078;-82
2023/03/22 02:39:36;;;;;;;17.03;8.63;;;10.70;99.90;;;;;;4976692;28;20031;-82
2023/03/22 02:42:36;;;;;;;15.77;9.23;;;10.70;99.90;;;;;;4976234;28;20101;-82
2023/03/22 02:45:05;;;;;;;17.63;8.57;;;10.70;99.90;;;;;;4976459;28;20027;-82
2023/03/22 02:47:33;;;;;;;19.73;10.10;;;10.80;99.90;;;;;;4974753;28;20023;-82
2023/03/22 02:50:28;;;;;;;19.07;9.77;;;10.80;99.90;;;;;;4958849;28;20046;-81
2023/03/22 02:53:27;;;;;;;17.57;10.10;;;10.80;99.90;;;;;;4971476;28;20042;-82
2023/03/22 02:56:13;;;;;;;13.00;8.63;;;10.80;99.90;;;;;;4939529;29;20031;-82
2023/03/22 02:58:46;;;;;;;18.00;8.93;;;10.80;99.90;;;;;;4939689;29;20112;-82
2023/03/22 03:01:28;;;;;;;16.00;8.60;;;10.80;99.90;;;;;;4938985;29;20049;-82
2023/03/22 03:03:58;;;;;;;16.93;10.13;;;10.90;99.90;;;;;;4939136;29;20024;-81
2023/03/22 03:06:29;;;;;;;17.37;10.80;;;10.80;99.90;;;;;;4939474;29;20510;-82
2023/03/22 03:08:56;;;;;;;18.67;10.55;;;10.90;99.90;;;;;;4956576;29;20024;-82
2023/03/22 03:11:23;;;;;;;17.10;10.63;;;10.80;99.90;;;;;;4938896;29;20537;-82
2023/03/22 03:13:50;;;;;;;15.03;9.13;;;10.90;99.90;;;;;;4971434;28;20027;-81
2023/03/22 03:16:20;;;;;;;17.60;10.15;;;10.90;99.90;;;;;;4939167;29;20029;-81
2023/03/22 03:19:00;;;;;;;15.00;9.37;;;10.80;99.90;;;;;;4970793;28;20062;-82
2023/03/22 03:22:02;;;;;;;19.83;10.80;;;10.80;99.90;;;;;;4971160;28;20028;-82
2023/03/22 03:24:28;;;;;;;17.77;9.80;;;10.80;99.90;;;;;;4956428;29;20082;-83
2023/03/22 03:26:56;;;;;;;16.57;10.33;;;10.80;99.90;;;;;;4954702;28;20027;-83
2023/03/22 03:29:47;;;;;;;18.55;10.88;;;10.80;99.90;;;;;;4955102;29;20043;-83
2023/03/22 03:32:17;;;;;;;18.30;10.67;;;10.80;99.90;;;;;;4938425;29;20030;-82
2023/03/22 03:34:50;;;;;;;14.70;9.30;;;10.80;99.90;;;;;;4954607;29;20032;-84
2023/03/22 03:37:27;;;;;;;17.60;10.17;;;10.80;99.90;;;;;;4956093;29;20031;-83
2023/03/22 03:40:34;;;;;;;18.20;10.00;;;10.80;99.90;;;;;;4938515;29;20023;-83
2023/03/22 03:43:02;;;;;;;15.90;8.97;;;10.80;99.90;;;;;;4936284;29;20035;-82
2023/03/22 03:45:29;;;;;;;15.33;9.30;;;10.80;99.90;;;;;;4938490;29;20114;-83
2023/03/22 03:48:02;;;;;;;16.30;9.20;;;10.80;99.90;;;;;;4938372;29;20023;-82
2023/03/22 03:50:27;;;;;;;12.17;8.37;;;10.80;99.90;;;;;;4939196;28;20035;-82
2023/03/22 03:52:54;;;;;;;14.70;9.10;;;10.80;99.90;;;;;;4957854;28;20539;-81
2023/03/22 03:55:21;;;;;;;12.90;7.43;;;10.80;99.90;;;;;;4973805;28;20383;-81
2023/03/22 03:57:47;;;;;;;15.82;8.23;;;10.80;99.90;;;;;;4957495;28;20027;-82
2023/03/22 04:00:13;;;;;;;15.83;8.13;;;10.80;99.90;;;;;;4941804;28;20038;-82
2023/03/22 04:02:43;;;;;;;13.67;7.87;;;10.80;99.90;;;;;;4973490;28;20399;-82
2023/03/22 04:05:11;;;;;;;13.13;7.03;;;10.80;99.90;;;;;;4957634;28;20513;-82
2023/03/22 04:07:37;;;;;;;13.52;7.13;;;10.80;99.90;;;;;;4974588;28;20026;-83
2023/03/22 04:10:04;;;;;;;15.37;7.50;;;10.70;99.90;;;;;;4956575;28;20046;-83
2023/03/22 04:12:31;;;;;;;15.23;8.10;;;10.80;99.90;;;;;;4957530;28;20078;-81
2023/03/22 04:14:57;;;;;;;14.37;7.80;;;10.70;99.90;;;;;;4957102;28;20387;-81
2023/03/22 04:17:23;;;;;;;13.40;7.33;;;10.70;99.90;;;;;;4957200;28;20049;-82
2023/03/22 04:19:52;;;;;;;14.17;5.93;;;10.70;99.90;;;;;;4956894;28;20459;-83
2023/03/22 04:22:18;;;;;;;14.80;7.57;;;10.70;99.90;;;;;;4974579;28;20023;-81
2023/03/22 04:24:48;;;;;;;13.73;7.10;;;10.70;99.90;;;;;;4957098;28;20034;-82
2023/03/22 04:27:19;;;;;;;11.20;6.27;;;10.70;99.90;;;;;;4974548;28;20023;-82
2023/03/22 04:29:47;;;;;;;13.93;6.83;;;10.60;99.90;;;;;;4957072;28;20077;-83
2023/03/22 04:32:25;;;;;;;12.87;7.23;;;10.60;99.90;;;;;;4956797;28;20065;-82
2023/03/22 04:34:51;;;;;;;12.53;5.80;;;10.60;99.90;;;;;;4972964;28;20023;-82
2023/03/22 04:37:18;;;;;;;11.87;6.27;;;10.50;99.90;;;;;;4974330;28;20027;-81
2023/03/22 04:39:44;;;;;;;10.67;5.83;;;10.50;99.90;;;;;;4956850;28;20033;-83
2023/03/22 04:42:11;;;;;;;19.13;6.53;;;10.50;99.90;;;;;;4974076;28;20046;-83
2023/03/22 04:44:36;;;;;;;11.77;6.43;;;10.50;99.90;;;;;;4956839;28;20026;-83
2023/03/22 04:47:02;;;;;;;11.30;5.77;;;10.40;99.90;;;;;;4941234;28;20050;-83
2023/03/22 04:49:28;;;;;;;16.10;6.67;;;10.40;99.90;;;;;;4956802;28;20035;-83
2023/03/22 04:51:54;;;;;;;11.07;5.70;;;10.40;99.90;;;;;;4944332;29;20051;-82
2023/03/22 04:54:21;;;;;;;10.90;4.90;;;10.40;99.90;;;;;;4954773;29;20032;-82
2023/03/22 04:56:47;;;;;;;10.87;5.60;;;10.40;99.90;;;;;;4953673;28;20031;-81
2023/03/22 04:59:13;;;;;;;16.67;6.10;;;10.40;99.90;;;;;;4953860;28;20043;-81
2023/03/22 05:01:41;;;;;;;13.90;5.53;;;10.40;99.90;;;;;;4953815;28;20614;-81
2023/03/22 05:04:07;;;;;;;12.13;5.03;;;10.40;99.90;;;;;;4937781;29;20110;-81
2023/03/22 05:06:33;;;;;;;10.60;5.27;;;10.30;99.90;;;;;;4957003;28;20130;-81
2023/03/22 05:08:59;;;;;;;13.23;5.70;;;10.30;99.90;;;;;;4941233;29;20032;-82
2023/03/22 05:11:26;;;;;;;10.53;4.93;;;10.30;99.90;;;;;;4959119;28;20487;-81
2023/03/22 05:13:56;;;;;;;12.50;5.37;;;10.30;99.90;;;;;;4945865;29;20027;-81
2023/03/22 05:16:23;;;;;;;11.70;4.60;;;10.40;99.90;;;;;;4949137;29;20038;-81
2023/03/22 05:18:53;;;;;;;9.70;4.27;;;10.30;99.90;;;;;;4975629;28;20022;-81
2023/03/22 05:21:21;;;;;;;12.10;5.03;;;10.40;99.90;;;;;;4977010;28;20077;-82
2023/03/22 05:23:50;;;;;;;9.70;4.77;;;10.40;99.90;;;;;;4959253;28;20061;-81
2023/03/22 05:26:19;;;;;;;10.67;5.10;;;10.40;99.90;;;;;;4959532;28;20030;-82
2023/03/22 05:28:45;;;;;;;9.83;4.67;;;10.40;99.90;;;;;;4960913;28;20063;-82
2023/03/22 05:31:14;;;;;;;10.30;4.60;;;10.40;99.90;;;;;;4960113;28;20421;-82
2023/03/22 05:33:40;;;;;;;8.17;4.00;;;10.40;99.90;;;;;;4976618;28;20074;-81
2023/03/22 05:36:07;;;;;;;9.67;4.33;;;10.40;99.90;;;;;;4960781;28;20037;-82
2023/03/22 05:38:32;;;;;;;8.97;3.87;;;10.40;99.90;;;;;;4976366;28;20116;-82
2023/03/22 05:40:58;;;;;;;13.07;4.37;;;10.40;99.90;;;;;;4960516;28;20067;-83
2023/03/22 05:43:24;;;;;;;10.10;4.10;;;10.40;99.90;;;;;;4976768;28;20062;-83
2023/03/22 05:45:49;;;;;;;11.17;4.27;;;10.30;99.90;;;;;;4960166;28;20023;-83
2023/03/22 05:48:16;;;;;;;10.33;4.53;;;10.30;99.90;;;;;;4976470;28;20169;-83
2023/03/22 05:50:41;;;;;;;11.33;3.63;;;10.30;99.90;;;;;;4978841;28;20101;-82
2023/03/22 05:53:07;;;;;;;8.07;3.50;;;10.30;99.90;;;;;;4995254;28;20442;-82
2023/03/22 05:55:33;;;;;;;14.17;4.67;;;10.30;99.90;;;;;;4995379;28;20030;-81
2023/03/22 05:58:00;;;;;;;8.70;3.70;;;10.30;99.90;;;;;;4995167;28;20069;-82
2023/03/22 06:00:30;;;;;;;8.87;3.63;;;10.30;99.90;;;;;;4996098;28;20084;-83
2023/03/22 06:02:59;;;;;;;9.40;3.60;;;10.30;99.90;;;;;;4994977;28;20033;-82
2023/03/22 06:05:25;;;;;;;11.30;4.17;;;10.30;99.90;;;;;;4994793;28;20049;-83
2023/03/22 06:07:50;;;;;;;8.57;3.83;;;10.30;99.90;;;;;;4995373;28;20062;-81
2023/03/22 06:10:17;;;;;;;8.17;3.40;;;10.20;99.90;;;;;;4978710;28;20045;-83
2023/03/22 06:12:42;;;;;;;12.10;4.27;;;10.20;99.90;;;;;;4995227;28;20553;-82
2023/03/22 06:15:09;;;;;;;10.40;3.50;;;10.20;99.90;;;;;;4996140;28;20062;-82
2023/03/22 06:17:35;;;;;;;9.07;2.73;;;10.20;99.90;;;;;;4993600;28;20026;-84
2023/03/22 06:20:08;;;;;;;12.20;3.80;;;10.20;99.90;;;;;;4995067;28;20023;-82
2023/03/22 06:22:34;;;;;;;9.43;3.50;;;10.30;99.90;;;;;;4978793;28;20030;-83
2023/03/22 06:25:00;;;;;;;14.97;3.73;;;10.20;99.90;;;;;;4963236;28;20037;-82
2023/03/22 06:27:26;;;;;;;8.47;3.47;;;10.20;99.90;;;;;;4994610;28;20034;-83
2023/03/22 06:29:53;;;;;;;10.40;3.67;;;10.20;99.90;;;;;;4978699;28;20042;-83
2023/03/22 06:32:22;;;;;;;9.30;3.10;;;10.20;99.90;;;;;;4994343;28;20033;-83
2023/03/22 06:34:51;;;;;;;11.60;3.60;;;10.20;99.90;;;;;;4994692;28;20482;-84
2023/03/22 06:37:17;;;;;;;9.13;3.03;;;10.20;99.90;;;;;;4978353;28;20030;-84
2023/03/22 06:39:42;;;;;;;13.67;3.27;;;10.20;99.90;;;;;;4994464;28;20037;-83
2023/03/22 06:42:08;;;;;;;12.63;2.97;;;10.30;99.90;;;;;;4995802;28;20109;-84
2023/03/22 06:44:34;;;;;;;9.00;3.07;;;10.20;99.90;;;;;;4994017;28;20026;-85
2023/03/22 06:47:00;;;;;;;11.43;2.83;;;10.30;99.90;;;;;;4992997;28;20030;-81
2023/03/22 06:49:26;;;;;;;10.73;3.23;;;10.30;99.90;;;;;;4995555;28;20050;-85
2023/03/22 06:51:52;;;;;;;9.03;2.97;;;10.30;99.90;;;;;;4995984;28;20086;-84
2023/03/22 06:54:18;;;;;;;9.63;2.73;;;10.30;99.90;;;;;;4978342;28;20030;-83
2023/03/22 06:56:44;;;;;;;9.70;3.03;;;10.30;99.90;;;;;;4946352;28;20049;-84
2023/03/22 06:59:09;;;;;;;9.00;2.80;;;10.40;99.90;;;;;;4961639;28;20038;-84
2023/03/22 07:01:35;;;;;;;7.43;2.17;;;10.40;99.90;;;;;;4978066;28;20495;-84
2023/03/22 07:04:01;;;;;;;9.07;2.40;;;10.50;99.90;;;;;;4978700;28;20034;-84
2023/03/22 07:06:27;;;;;;;9.00;2.47;;;10.60;99.90;;;;;;4978476;28;20038;-84
2023/03/22 07:08:52;;;;;;;8.83;2.77;;;10.70;99.90;;;;;;4992340;28;20053;-83
2023/03/22 07:11:19;;;;;;;9.10;2.33;;;10.70;99.90;;;;;;4978149;28;20034;-83
2023/03/22 07:13:44;;;;;;;10.50;2.23;;;10.80;99.90;;;;;;4979040;28;20491;-83
2023/03/22 07:16:10;;;;;;;11.02;2.53;;;10.90;99.90;;;;;;4962076;28;20037;-85
2023/03/22 07:18:36;;;;;;;8.93;2.57;;;11.00;99.90;;;;;;4994835;28;20025;-84
2023/03/22 07:21:02;;;;;;;8.37;2.50;;;11.10;99.90;;;;;;4974784;28;20133;-83
2023/03/22 07:23:28;;;;;;;9.30;2.83;;;11.10;99.90;;;;;;4991901;28;20030;-83
2023/03/22 07:25:54;;;;;;;11.48;2.97;;;11.20;99.90;;;;;;4960946;28;20038;-83
2023/03/22 07:28:20;;;;;;;7.77;2.50;;;11.30;99.90;;;;;;4972935;28;20026;-84
2023/03/22 07:30:46;;;;;;;14.35;2.53;;;11.30;99.90;;;;;;4991060;28;20118;-81
2023/03/22 07:33:12;;;;;;;9.50;2.53;;;11.40;99.90;;;;;;4972904;28;20053;-84
2023/03/22 07:35:39;;;;;;;8.93;2.03;;;11.40;99.90;;;;;;4975986;28;20026;-84
2023/03/22 07:38:05;;;;;;;10.07;2.55;;;11.40;99.90;;;;;;4967913;28;20053;-84
2023/03/22 07:40:31;;;;;;;13.43;3.05;;;11.40;99.90;;;;;;4973193;28;20470;-82
2023/03/22 07:42:57;;;;;;;10.27;2.40;;;11.40;99.90;;;;;;4958561;28;20042;-86
2023/03/22 07:45:24;;;;;;;10.15;2.63;;;11.40;99.90;;;;;;4974275;28;20379;-83
2023/03/22 07:47:49;;;;;;;10.02;3.20;;;11.40;99.90;;;;;;4987577;28;20030;-83
2023/03/22 07:50:16;;;;;;;18.48;3.55;;;11.40;99.90;;;;;;4978650;28;20038;-83
2023/03/22 07:52:43;;;;;;;8.13;3.25;;;11.40;99.90;;;;;;4973793;28;20043;-82
2023/03/22 07:55:10;;;;;;;11.85;3.40;;;11.40;99.90;;;;;;4974937;28;20050;-83
2023/03/22 07:57:37;;;;;;;11.07;3.20;;;11.50;99.90;;;;;;4957858;28;20038;-83
2023/03/22 08:00:05;;;;;;;9.68;2.88;;;11.50;99.90;;;;;;4957662;28;20106;-83
2023/03/22 08:02:30;;;;;;;14.38;2.65;;;11.60;99.90;;;;;;4957013;28;20081;-83
2023/03/22 08:04:56;;;;;;;9.77;3.50;;;11.60;99.90;;;;;;4973549;28;20459;-83
2023/03/22 08:07:24;;;;;;;12.65;2.80;;;11.70;99.90;;;;;;4943629;28;20390;-83
2023/03/22 08:09:50;;;;;;;12.30;2.78;;;11.70;99.80;;;;;;4975042;28;20102;-83
2023/03/22 08:12:15;;;;;;;9.82;3.13;;;11.70;99.60;;;;;;4941846;28;20054;-83
2023/03/22 08:14:41;;;;;;;10.18;2.83;;;11.80;99.60;;;;;;4957993;28;20034;-84
2023/03/22 08:17:07;;;;;;;12.35;2.58;;;11.80;99.20;;;;;;4957786;28;20023;-84
2023/03/22 08:19:33;;;;;;;16.77;3.42;;;11.80;99.30;;;;;;4974999;28;20046;-83
2023/03/22 08:21:59;;;;;;;11.10;2.95;;;11.90;99.20;;;;;;4942127;28;20074;-84
2023/03/22 08:24:25;;;;;;;11.63;2.75;;;11.90;99.00;;;;;;4942659;28;20038;-84
2023/03/22 08:26:52;;;;;;;12.75;2.90;;;12.00;98.70;;;;;;4973674;28;20027;-85
2023/03/22 08:29:18;;;;;;;11.13;2.58;;;12.10;98.40;;;;;;4973238;28;20471;-82
2023/03/22 08:31:45;;;;;;;9.00;2.53;;;12.20;98.30;;;;;;4974323;28;20022;-83
2023/03/22 08:34:11;;;;;;;10.48;2.75;;;12.20;98.00;;;;;;4957612;28;20102;-84
2023/03/22 08:36:37;;;;;;;8.02;2.50;;;12.20;97.60;;;;;;4957308;28;20029;-84
2023/03/22 08:39:03;;;;;;;11.60;2.38;;;12.30;97.10;;;;;;4940272;28;20031;-84
2023/03/22 08:41:29;;;;;;;14.68;2.88;;;12.30;97.10;;;;;;4966920;28;20023;-84
2023/03/22 08:43:55;;;;;;;7.93;2.50;;;12.40;96.90;;;;;;4966682;28;20031;-83
2023/03/22 08:46:20;;;;;;;13.23;2.28;;;12.40;96.80;;;;;;4965365;28;20029;-84
2023/03/22 08:48:49;;;;;;;10.80;3.13;;;12.40;96.30;;;;;;4963491;28;20027;-83
2023/03/22 08:51:20;;;;;;;11.27;2.45;;;12.50;96.10;;;;;;4967815;28;20068;-84
2023/03/22 08:53:47;;;;;;;12.20;3.10;;;12.60;95.20;;;;;;4992180;28;20023;-83
2023/03/22 08:56:15;;;;;;;8.07;2.75;;;12.60;95.40;;;;;;4993015;28;20034;-84
2023/03/22 08:58:45;;;;;;;10.00;2.42;;;12.60;94.90;;;;;;4975624;28;20030;-83
2023/03/22 09:01:13;;;;;;;7.07;2.33;;;12.70;94.70;;;;;;4993195;28;20022;-83
2023/03/22 09:03:38;;;;;;;12.00;3.03;;;12.80;94.40;;;;;;4980715;28;20053;-84
2023/03/22 09:06:05;;;;;;;10.60;2.28;;;12.90;93.30;;;;;;4984154;28;20022;-83
2023/03/22 09:08:32;;;;;;;11.32;2.88;;;12.90;93.20;;;;;;4991499;28;20023;-83
2023/03/22 09:10:57;;;;;;;9.95;2.10;;;12.90;93.10;;;;;;4979153;28;20121;-84
2023/03/22 09:13:23;;;;;;;14.07;2.30;;;12.90;92.70;;;;;;4995397;28;20129;-83
2023/03/22 09:15:51;;;;;;;8.65;2.15;;;13.00;92.80;;;;;;4990427;28;20663;-85
2023/03/22 09:18:17;;;;;;;7.05;2.22;;;13.10;92.10;;;;;;4975865;28;20031;-84
2023/03/22 09:20:44;;;;;;;10.98;2.28;;;13.10;92.10;;;;;;4992325;28;20050;-83
2023/03/22 09:23:11;;;;;;;9.07;1.98;;;13.10;91.70;;;;;;4992529;28;20031;-83
2023/03/22 09:25:37;;;;;;;8.50;1.70;;;13.20;91.70;;;;;;4994792;28;20104;-83
2023/03/22 09:28:03;;;;;;;8.43;1.45;;;13.30;91.60;;;;;;4995978;28;20030;-83
2023/03/22 09:30:29;;;;;;;9.13;1.88;;;13.30;91.30;;;;;;5013074;28;20030;-83
2023/03/22 09:32:55;;;;;;;6.28;1.45;;;13.30;90.60;;;;;;4996057;28;20080;-84
2023/03/22 09:35:21;;;;;;;7.43;1.30;;;13.30;90.00;;;;;;5013447;28;20033;-83
2023/03/22 09:37:48;;;;;;;8.77;1.95;;;13.30;90.20;;;;;;4991656;28;20026;-84
2023/03/22 09:40:16;;;;;;;12.52;1.75;;;13.30;90.00;;;;;;4992318;28;20482;-83
2023/03/22 09:42:51;;;;;;;7.43;1.35;;;13.20;89.50;;;;;;4994085;28;20026;-84
2023/03/22 09:45:28;;;;;;;10.02;1.70;;;13.20;89.60;;;;;;4976227;28;20022;-83
2023/03/22 09:47:55;;;;;;;8.35;1.45;;;13.20;89.70;;;;;;4993901;28;20030;-84
2023/03/22 09:50:24;;;;;;;8.15;1.75;;;13.10;90.00;;;;;;4992054;28;20041;-82
2023/03/22 09:52:51;;;;;;;7.95;1.33;;;13.10;90.00;;;;;;4996013;28;20129;-84
2023/03/22 09:55:32;;;;;;;10.85;1.77;;;13.00;89.70;;;;;;4979483;28;20145;-83
2023/03/22 09:58:17;;;;;;;10.13;1.60;;;13.00;89.80;;;;;;4996632;28;20055;-84
2023/03/22 10:00:47;;;;;;;12.00;1.63;;;12.90;89.80;;;;;;4996515;28;20029;-83
2023/03/22 10:03:24;;;;;;;9.57;1.60;;;12.90;90.00;;;;;;4996636;28;20030;-83
2023/03/22 10:06:14;;;;;;;8.32;1.55;;;12.90;90.00;;;;;;4996390;28;20030;-83
2023/03/22 10:08:45;;;;;;;6.97;1.67;;;12.90;90.20;;;;;;4979425;28;20471;-84
2023/03/22 10:11:24;;;;;;;9.80;1.40;;;12.90;90.10;;;;;;4996399;28;20053;-84
2023/03/22 10:13:56;;;;;;;9.85;1.65;;;12.90;90.10;;;;;;4996918;28;20034;-84
2023/03/22 10:16:28;;;;;;;8.88;1.40;;;12.90;90.10;;;;;;4978638;28;20386;-83
2023/03/22 10:19:01;;;;;;;7.93;1.50;;;12.90;90.10;;;;;;4996477;28;20061;-83
2023/03/22 10:21:28;;;;;;;8.75;1.25;;;12.90;90.00;;;;;;4996542;28;20117;-83
2023/03/22 10:24:06;;;;;;;8.98;2.70;;;12.90;90.20;;;;;;4996193;28;20031;-84
2023/03/22 10:26:42;;;;;;;11.00;1.75;;;12.80;90.20;;;;;;4978514;28;20062;-84
2023/03/22 10:29:17;;;;;;;5.65;1.20;;;12.90;90.70;;;;;;4995932;28;20113;-83
2023/03/22 10:31:44;;;;;;;11.13;1.60;;;12.90;91.10;;;;;;4996591;28;20030;-82
2023/03/22 10:34:32;;;;;;;5.85;1.25;;;12.80;91.40;;;;;;4996494;28;20054;-84
2023/03/22 10:37:02;;;;;;;8.52;1.23;;;12.80;91.60;;;;;;5000803;28;20046;-83
2023/03/22 10:39:45;;;;;;;10.38;1.55;;;12.70;91.80;;;;;;4980851;28;20027;-84
2023/03/22 10:42:18;;;;;;;10.27;1.60;;;12.70;92.30;;;;;;4996874;28;20026;-84
2023/03/22 10:44:50;;;;;;;11.88;2.00;;;12.60;93.30;;;;;;4978717;28;20022;-83
2023/03/22 10:47:21;;;;;;;8.25;2.10;;;12.50;93.80;;;;;;4994262;28;20537;-83
2023/03/22 10:49:53;;;;;;;10.38;1.42;;;12.40;94.60;;;;;;4977984;28;20022;-83
2023/03/22 10:52:40;;;;;;;10.00;1.73;;;12.30;95.20;;;;;;4960573;28;20056;-83
2023/03/22 10:55:11;;;;;;;8.02;1.50;;;12.30;95.60;;;;;;4975650;28;20027;-83
2023/03/22 10:57:38;;;;;;;11.15;2.13;;;12.20;96.50;;;;;;4972148;28;20435;-83
2023/03/22 11:00:10;;;;;;;13.80;1.40;;;12.20;97.10;;;;;;4943090;28;20031;-83
2023/03/22 11:02:49;;;;;;;4.93;1.50;;;12.10;97.50;;;;;;4974541;28;20038;-83
2023/03/22 11:05:22;;;;;;;7.72;1.40;;;12.10;97.70;;;;;;4974078;28;20101;-84
2023/03/22 11:07:48;;;;;;;10.02;1.75;;;12.10;98.50;;;;;;4974737;28;20035;-82
2023/03/22 11:10:32;;;;;;;8.15;1.70;;;12.10;98.70;;;;;;4957302;28;20053;-83
2023/03/22 11:13:07;;;;;;;11.00;2.42;;;12.00;99.00;;;;;;4973558;28;20055;-83
2023/03/22 11:15:50;;;;;;;9.38;1.58;;;12.00;99.50;;;;;;4962510;28;20031;-83
2023/03/22 11:18:17;;;;;;;7.05;1.92;;;12.00;99.60;;;;;;4956280;28;20117;-83
2023/03/22 11:20:55;;;;;;;7.88;1.65;;;12.00;99.90;;;;;;4975809;28;20061;-83
2023/03/22 11:23:23;;;;;;;10.57;1.90;;;11.90;99.90;;;;;;4957506;28;20494;-83
2023/03/22 11:25:49;;;;;;;6.22;1.88;;;11.90;99.90;;;;;;4975566;28;20031;-83
2023/03/22 11:28:33;;;;;;;8.48;1.30;;;11.90;99.90;;;;;;4971197;28;20038;-83
2023/03/22 11:31:10;;;;;;;14.07;1.60;;;11.90;99.90;;;;;;4971323;28;20494;-83
2023/03/22 11:33:37;;;;;;;8.85;2.05;;;11.80;99.90;;;;;;4971423;28;20035;-82
2023/03/22 11:36:23;;;;;;;5.03;1.17;;;11.80;99.90;;;;;;4942045;28;20035;-83
2023/03/22 11:39:06;;;;;;;13.75;1.83;;;11.90;99.90;;;;;;4973731;28;20031;-83
2023/03/22 11:41:35;;;;;;;8.63;1.48;;;12.00;99.90;;;;;;4974071;28;20054;-83
2023/03/22 11:44:05;;;;;;;8.50;1.42;;;12.00;99.90;;;;;;4961350;28;20049;-82
2023/03/22 11:46:32;;;;;;;10.38;2.30;;;12.10;99.90;;;;;;4973691;28;20471;-83
2023/03/22 11:49:03;;;;;;;5.40;1.27;;;12.10;99.90;;;;;;4957978;28;20039;-82
2023/03/22 11:51:35;;;;;;;5.93;1.23;;;12.10;99.90;;;;;;4982632;28;20086;-83
2023/03/22 11:54:27;;;;;;;8.18;1.33;;;12.20;99.90;;;;;;4992810;28;20482;-86
2023/03/22 11:56:57;;;;;;;6.72;1.20;;;12.20;99.90;;;;;;4978584;28;20026;-85
2023/03/22 11:59:53;;;;;;;7.70;1.73;;;12.20;99.90;;;;;;4993638;28;20041;-85
2023/03/22 12:02:25;;;;;;;9.30;1.38;;;12.20;99.90;;;;;;4993191;28;20089;-84
2023/03/22 12:05:14;;;;;;;10.52;1.63;;;12.20;99.90;;;;;;4976924;28;20054;-84
2023/03/22 12:07:41;;;;;;;11.65;1.63;;;12.30;99.90;;;;;;4976087;28;20446;-84
2023/03/22 12:10:15;;;;;;;5.35;1.00;;;12.30;99.90;;;;;;4993032;28;20042;-84
2023/03/22 12:12:50;;;;;;;7.25;1.58;;;12.30;99.70;;;;;;4994466;28;20024;-85
2023/03/22 12:15:23;;;;;;;8.23;1.52;;;12.30;99.50;;;;;;4992355;28;20057;-84
2023/03/22 12:18:01;;;;;;;4.68;1.55;;;12.30;99.20;;;;;;4994497;28;20027;-85
2023/03/22 12:20:52;;;;;;;7.72;1.75;;;12.20;98.90;;;;;;4976328;28;20080;-84
2023/03/22 12:23:21;;;;;;;8.07;1.23;;;12.30;98.90;;;;;;4992728;28;20048;-84
2023/03/22 12:25:55;;;;;;;6.22;1.35;;;12.30;99.10;;;;;;4992691;28;20044;-84
2023/03/22 12:28:27;;;;;;;6.18;1.45;;;12.30;98.90;;;;;;4976992;28;20137;-85
2023/03/22 12:30:57;;;;;;;7.22;1.80;;;12.30;98.70;;;;;;4992244;28;20034;-83
2023/03/22 12:33:27;;;;;;;7.72;1.65;;;12.30;98.60;;;;;;4993925;28;20470;-83
2023/03/22 12:36:04;;;;;;;9.05;1.55;;;12.30;98.70;;;;;;4992655;28;20022;-83
2023/03/22 12:38:47;;;;;;;5.47;1.67;;;12.30;98.60;;;;;;4989056;28;20082;-83
2023/03/22 12:41:26;;;;;;;9.13;1.50;;;12.30;98.70;;;;;;4973132;28;20022;-84
2023/03/22 12:43:55;;;;;;;4.60;0.93;;;12.30;98.60;;;;;;4976201;28;20085;-84
2023/03/22 12:47:16;;;;;;;7.82;1.30;;;12.30;98.60;;;;;;4976619;28;20030;-85
2023/03/22 12:49:47;;;;;;;6.43;1.52;;;12.40;98.60;;;;;;4943980;28;20097;-84
2023/03/22 12:52:22;;;;;;;6.75;1.27;;;12.40;98.30;;;;;;4972920;28;20047;-85
2023/03/22 12:54:49;;;;;;;8.48;1.27;;;12.40;98.40;;;;;;4988758;28;20138;-81
2023/03/22 12:57:16;;;;;;;5.32;1.25;;;12.40;98.30;;;;;;4989853;28;20033;-83